Time;durP1;ratioP1;P1;durP2;ratioP2;P2;SDS_P1;SDS_P2;PMS_P1;PMS_P2;Temp;Humidity;BMP_temperature;BMP_pressure;BME280_temperature;BME280_humidity;BME280_pressure;Samples;Min_cycle;Max_cycle;Signal;HPM_P1;HPM_P2
2023/11/19 00:02:14;;;;;;;4.03;2.73;;;;;;;7.26;100.00;153225.97;5027982;28;20458;-77
2023/11/19 00:04:40;;;;;;;3.90;2.73;;;;;;;7.27;100.00;153227.28;5024750;28;20434;-75
2023/11/19 00:07:07;;;;;;;3.30;2.70;;;;;;;7.27;100.00;153228.56;5016279;28;20472;-76
2023/11/19 00:09:36;;;;;;;3.07;2.60;;;;;;;7.31;100.00;153238.88;5021668;28;20455;-75
2023/11/19 00:12:04;;;;;;;3.63;2.97;;;;;;;7.35;100.00;153247.94;5051640;28;20454;-76
2023/11/19 00:14:30;;;;;;;3.70;3.07;;;;;;;7.37;100.00;153253.09;5036282;28;20445;-76
2023/11/19 00:16:58;;;;;;;3.50;3.10;;;;;;;7.38;100.00;153254.41;5018734;28;20478;-75
2023/11/19 00:19:26;;;;;;;4.07;2.90;;;;;;;7.40;100.00;153259.53;5046923;28;20839;-75
2023/11/19 00:21:52;;;;;;;3.50;3.20;;;;;;;7.42;100.00;153264.69;5038790;28;20482;-75
2023/11/19 00:24:20;;;;;;;4.40;3.30;;;;;;;7.48;100.00;153280.22;5049363;28;20439;-75
2023/11/19 00:26:46;;;;;;;4.67;3.10;;;;;;;7.50;100.00;153286.66;5044523;28;20442;-75
2023/11/19 00:29:13;;;;;;;3.33;2.97;;;;;;;7.54;100.00;153295.72;5029654;28;20439;-74
2023/11/19 00:31:40;;;;;;;3.10;2.60;;;;;;;7.54;100.00;153297.03;5004840;28;20543;-74
2023/11/19 00:34:08;;;;;;;2.77;2.30;;;;;;;7.57;100.00;153303.47;5047401;28;20462;-75
2023/11/19 00:36:34;;;;;;;3.23;2.83;;;;;;;7.58;100.00;153307.34;5024346;28;20478;-75
2023/11/19 00:39:01;;;;;;;3.60;2.63;;;;;;;7.64;100.00;153321.56;5033388;28;20455;-75
2023/11/19 00:41:27;;;;;;;3.40;2.80;;;;;;;7.65;100.00;153324.16;5051891;28;20445;-75
2023/11/19 00:43:55;;;;;;;4.10;3.10;;;;;;;7.66;100.00;153326.72;5038404;28;20458;-74
2023/11/19 00:46:21;;;;;;;2.83;2.53;;;;;;;7.66;100.00;153326.72;5042482;28;20451;-75
2023/11/19 00:48:48;;;;;;;3.00;2.70;;;;;;;7.72;100.00;153342.22;5052316;28;20972;-74
2023/11/19 00:51:16;;;;;;;4.77;2.93;;;;;;;7.70;100.00;153338.38;5047641;28;20977;-75
2023/11/19 00:53:43;;;;;;;4.77;2.90;;;;;;;7.71;100.00;153340.91;5022959;28;21005;-75
2023/11/19 00:56:12;;;;;;;2.90;2.53;;;;;;;7.76;100.00;153352.53;5046548;28;20510;-75
2023/11/19 00:58:38;;;;;;;3.00;2.40;;;;;;;7.76;100.00;153352.53;5027077;28;20428;-75
2023/11/19 01:01:05;;;;;;;3.80;2.90;;;;;;;7.83;100.00;153370.66;5047894;28;20459;-74
2023/11/19 01:03:32;;;;;;;4.07;2.70;;;;;;;7.81;100.00;153365.50;5030160;28;20450;-75
2023/11/19 01:06:00;;;;;;;3.87;2.67;;;;;;;7.80;100.00;153364.19;5031643;28;20845;-75
2023/11/19 01:08:28;;;;;;;3.30;2.77;;;;;;;7.81;100.00;153365.50;5027185;28;20817;-74
2023/11/19 01:10:55;;;;;;;3.13;2.53;;;;;;;7.85;100.00;153377.09;5048170;28;20837;-76
2023/11/19 01:13:22;;;;;;;3.60;2.87;;;;;;;7.85;100.00;153375.81;5046600;28;20443;-76
2023/11/19 01:15:48;;;;;;;3.10;2.70;;;;;;;7.89;100.00;153386.13;5020649;28;21077;-76
2023/11/19 01:18:15;;;;;;;4.70;2.37;;;;;;;7.89;100.00;153387.41;5027127;28;20470;-76
2023/11/19 01:20:42;;;;;;;3.20;2.73;;;;;;;7.93;100.00;153396.47;5022400;28;20458;-75
2023/11/19 01:23:08;;;;;;;3.33;2.30;;;;;;;7.91;100.00;153391.31;5028658;28;20443;-75
2023/11/19 01:25:38;;;;;;;2.23;1.90;;;;;;;7.94;100.00;153400.34;5031471;28;20458;-75
2023/11/19 01:28:04;;;;;;;3.00;2.50;;;;;;;7.98;100.00;153409.41;5034399;28;20450;-75
2023/11/19 01:30:31;;;;;;;2.17;1.80;;;;;;;7.99;100.00;153412.00;5045151;28;20908;-75
2023/11/19 01:32:58;;;;;;;3.30;2.17;;;;;;;8.01;100.00;153415.84;5050253;28;21008;-76
2023/11/19 01:35:24;;;;;;;2.17;1.87;;;;;;;8.01;100.00;153417.16;5024373;28;20478;-76
2023/11/19 01:37:51;;;;;;;3.13;1.97;;;;;;;8.03;100.00;153422.31;5026173;28;20858;-76
2023/11/19 01:40:21;;;;;;;2.90;2.53;;;;;;;8.05;100.00;153427.47;5050756;28;20528;-75
2023/11/19 01:42:50;;;;;;;3.03;2.30;;;;;;;8.10;100.00;153440.38;5032662;28;20459;-75
2023/11/19 01:45:24;;;;;;;2.53;1.70;;;;;;;8.05;100.00;153426.22;5017045;28;20992;-76
2023/11/19 01:47:51;;;;;;;2.40;1.90;;;;;;;8.04;100.00;153423.63;5044510;28;20851;-76
2023/11/19 01:50:19;;;;;;;2.20;1.90;;;;;;;8.10;100.00;153440.38;5037479;28;20450;-76
2023/11/19 01:52:46;;;;;;;2.60;1.67;;;;;;;8.15;100.00;153453.34;5038264;28;20551;-76
2023/11/19 01:55:13;;;;;;;1.83;1.50;;;;;;;8.15;100.00;153453.34;5037402;28;20466;-75
2023/11/19 01:57:41;;;;;;;1.70;1.60;;;;;;;8.14;100.00;153450.75;5027315;28;20470;-76
2023/11/19 02:00:11;;;;;;;2.17;1.63;;;;;;;8.18;100.00;153461.06;5011982;28;20482;-76
2023/11/19 02:02:40;;;;;;;2.53;1.60;;;;;;;8.22;100.00;153471.44;5038930;28;20451;-76
2023/11/19 02:05:07;;;;;;;1.80;1.40;;;;;;;8.25;100.00;153479.19;5006285;28;20468;-76
2023/11/19 02:07:33;;;;;;;1.90;1.50;;;;;;;8.25;100.00;153479.19;5022405;28;20436;-76
2023/11/19 02:10:02;;;;;;;2.03;1.60;;;;;;;8.28;100.00;153485.69;5007449;28;20811;-75
2023/11/19 02:12:29;;;;;;;1.70;1.30;;;;;;;8.32;100.00;153497.31;5024618;28;20449;-76
2023/11/19 02:14:55;;;;;;;2.50;1.20;;;;;;;8.33;100.00;153498.63;5027378;28;20535;-76
2023/11/19 02:17:31;;;;;;;1.50;1.20;;;;;;;8.35;100.00;153505.06;5002716;28;20462;-76
2023/11/19 02:19:58;;;;;;;1.60;1.10;;;;;;;8.36;100.00;153507.69;5026719;28;20450;-76
2023/11/19 02:22:27;;;;;;;1.70;1.10;;;;;;;8.39;100.00;153515.38;5014645;28;20822;-76
2023/11/19 02:25:00;;;;;;;1.57;1.07;;;;;;;8.39;100.00;153514.13;5028269;28;20532;-77
2023/11/19 02:27:29;;;;;;;1.40;1.07;;;;;;;8.41;100.00;153520.59;5007583;28;20485;-76
2023/11/19 02:29:57;;;;;;;1.40;1.00;;;;;;;8.47;100.00;153536.06;5045272;28;20443;-76
2023/11/19 02:32:25;;;;;;;1.43;0.70;;;;;;;8.53;100.00;153550.28;5041797;28;20462;-76
2023/11/19 02:34:53;;;;;;;0.90;0.60;;;;;;;8.53;100.00;153551.59;5006923;28;20455;-76
2023/11/19 02:37:20;;;;;;;1.10;0.60;;;;;;;8.49;100.00;153541.28;5038288;28;20478;-76
2023/11/19 02:39:46;;;;;;;0.80;0.40;;;;;;;8.58;100.00;153563.22;5008548;28;20841;-75
2023/11/19 02:42:13;;;;;;;1.00;0.50;;;;;;;8.55;100.00;153556.75;5005567;28;20451;-76
2023/11/19 02:44:39;;;;;;;1.00;0.50;;;;;;;8.58;100.00;153564.53;5022584;28;20877;-76
2023/11/19 02:47:08;;;;;;;1.03;0.50;;;;;;;8.58;100.00;153564.53;5021392;28;20471;-75
2023/11/19 02:49:34;;;;;;;1.87;0.50;;;;;;;8.58;100.00;153563.22;5045593;28;20435;-75
2023/11/19 02:52:01;;;;;;;0.80;0.40;;;;;;;8.61;100.00;153569.69;5024718;28;20475;-75
2023/11/19 02:54:28;;;;;;;0.70;0.30;;;;;;;8.63;100.00;153574.88;5051439;28;20443;-76
2023/11/19 02:56:59;;;;;;;1.40;0.40;;;;;;;8.61;100.00;153569.69;5003945;28;20525;-75
2023/11/19 02:59:28;;;;;;;0.90;0.40;;;;;;;8.64;100.00;153577.44;5027280;28;20446;-74
2023/11/19 03:01:55;;;;;;;0.70;0.30;;;;;;;8.68;100.00;153587.81;5007899;28;20469;-75
2023/11/19 03:04:23;;;;;;;0.77;0.40;;;;;;;8.78;100.00;153613.66;4997891;28;20501;-74
2023/11/19 03:06:50;;;;;;;1.63;0.40;;;;;;;8.80;100.00;153618.81;5027219;28;20439;-77
2023/11/19 03:09:16;;;;;;;0.73;0.30;;;;;;;8.79;100.00;153617.50;5020298;28;20461;-76
2023/11/19 03:11:44;;;;;;;1.20;0.57;;;;;;;8.80;100.00;153618.81;5036111;28;20810;-76
2023/11/19 03:14:11;;;;;;;0.80;0.33;;;;;;;8.81;100.00;153621.41;5037507;28;20861;-76
2023/11/19 03:16:37;;;;;;;0.70;0.30;;;;;;;8.88;100.00;153639.50;5024040;28;20530;-76
2023/11/19 03:19:04;;;;;;;1.97;0.40;;;;;;;8.89;100.00;153643.41;5019659;28;20450;-74
2023/11/19 03:21:32;;;;;;;1.73;0.30;;;;;;;8.90;100.00;153645.97;5045416;28;20802;-74
2023/11/19 03:24:00;;;;;;;0.77;0.30;;;;;;;8.91;100.00;153648.56;5006964;28;20450;-76
2023/11/19 03:26:27;;;;;;;0.80;0.30;;;;;;;8.95;100.00;153657.59;5040920;28;20523;-77
2023/11/19 03:28:54;;;;;;;1.00;0.40;;;;;;;8.96;100.00;153660.19;5036835;28;20449;-76
2023/11/19 03:31:20;;;;;;;0.73;0.30;;;;;;;9.01;100.00;153673.13;5029237;28;20450;-76
2023/11/19 03:33:47;;;;;;;0.90;0.30;;;;;;;8.99;100.00;153669.25;5035889;28;20839;-76
2023/11/19 03:36:14;;;;;;;1.63;0.37;;;;;;;8.98;100.00;153665.34;5014459;28;20589;-77
2023/11/19 03:38:42;;;;;;;0.80;0.40;;;;;;;9.09;100.00;153693.81;5009947;28;20470;-76
2023/11/19 03:41:12;;;;;;;0.70;0.30;;;;;;;9.10;100.00;153696.41;5037366;28;20457;-75
2023/11/19 03:43:39;;;;;;;1.13;0.50;;;;;;;9.04;100.00;153682.19;5029475;28;20457;-76
2023/11/19 03:46:16;;;;;;;0.90;0.40;;;;;;;9.06;100.00;153686.06;5027694;28;20450;-76
2023/11/19 03:48:43;;;;;;;0.90;0.50;;;;;;;9.09;100.00;153693.81;5013125;28;20452;-76
2023/11/19 03:51:09;;;;;;;0.90;0.43;;;;;;;9.09;100.00;153693.81;5020224;28;20462;-76
2023/11/19 03:53:36;;;;;;;0.90;0.30;;;;;;;9.10;100.00;153696.41;5022694;28;21074;-76
2023/11/19 03:56:04;;;;;;;0.93;0.30;;;;;;;9.07;100.00;153688.66;5038399;28;20448;-76
2023/11/19 03:58:31;;;;;;;0.97;0.40;;;;;;;9.06;100.00;153687.34;5043621;28;20795;-76
2023/11/19 04:00:58;;;;;;;1.17;0.40;;;;;;;9.12;100.00;153701.59;5025207;28;21037;-75
2023/11/19 04:03:24;;;;;;;0.70;0.20;;;;;;;9.12;100.00;153702.88;5022400;28;20445;-76
2023/11/19 04:05:51;;;;;;;0.77;0.37;;;;;;;9.10;100.00;153696.41;5043762;28;20534;-76
2023/11/19 04:08:17;;;;;;;1.20;0.40;;;;;;;9.12;100.00;153702.88;5047238;28;20469;-75
2023/11/19 04:10:43;;;;;;;1.30;0.40;;;;;;;9.08;100.00;153692.50;5027329;28;20459;-76
2023/11/19 04:13:12;;;;;;;1.00;0.40;;;;;;;9.14;100.00;153706.75;5047941;28;20493;-76
2023/11/19 04:15:38;;;;;;;0.83;0.40;;;;;;;9.16;100.00;153711.91;5029899;28;20490;-76
2023/11/19 04:18:05;;;;;;;0.90;0.40;;;;;;;9.15;100.00;153710.66;4994885;28;20467;-76
2023/11/19 04:20:32;;;;;;;0.80;0.30;;;;;;;9.14;100.00;153708.03;5044186;28;20459;-76
2023/11/19 04:23:00;;;;;;;0.80;0.33;;;;;;;9.14;100.00;153706.75;5041678;28;20557;-76
2023/11/19 04:25:27;;;;;;;1.23;0.40;;;;;;;9.17;100.00;153714.50;5003529;28;20457;-76
2023/11/19 04:27:53;;;;;;;1.47;0.43;;;;;;;9.15;100.00;153710.66;5017746;28;20454;-76
2023/11/19 04:30:21;;;;;;;0.87;0.40;;;;;;;9.16;100.00;153713.22;5029554;28;20454;-76
2023/11/19 04:32:48;;;;;;;1.00;0.40;;;;;;;9.17;100.00;153715.81;5035901;28;20530;-76
2023/11/19 04:35:16;;;;;;;0.80;0.37;;;;;;;9.15;100.00;153710.66;5020953;28;20462;-76
2023/11/19 04:37:43;;;;;;;0.70;0.30;;;;;;;9.20;100.00;153722.28;5043212;28;20499;-76
2023/11/19 04:40:11;;;;;;;0.70;0.30;;;;;;;9.23;100.00;153730.03;5041548;28;20949;-76
2023/11/19 04:42:40;;;;;;;1.10;0.30;;;;;;;9.25;100.00;153735.22;5048104;28;20435;-76
2023/11/19 04:45:10;;;;;;;1.33;0.40;;;;;;;9.29;100.00;153745.59;5013653;28;20845;-76
2023/11/19 04:47:37;;;;;;;0.80;0.30;;;;;;;9.34;100.00;153758.50;5045556;28;20446;-76
2023/11/19 04:50:05;;;;;;;0.90;0.30;;;;;;;9.34;100.00;153757.22;5048108;28;20435;-76
2023/11/19 04:52:31;;;;;;;0.90;0.30;;;;;;;9.34;100.00;153757.22;5023476;28;20554;-76
2023/11/19 04:54:58;;;;;;;0.80;0.30;;;;;;;9.36;100.00;153762.38;5023325;28;20479;-76
2023/11/19 04:57:24;;;;;;;0.70;0.30;;;;;;;9.39;100.00;153771.44;5043181;28;20816;-76
2023/11/19 04:59:51;;;;;;;1.10;0.43;;;;;;;9.44;100.00;153784.38;5033006;28;20957;-76
2023/11/19 05:02:17;;;;;;;0.80;0.40;;;;;;;9.46;100.00;153789.53;5045860;28;20451;-76
2023/11/19 05:04:46;;;;;;;0.80;0.30;;;;;;;9.46;100.00;153789.53;5043343;28;20470;-76
2023/11/19 05:07:13;;;;;;;1.03;0.30;;;;;;;9.49;100.00;153796.00;5047336;28;20446;-76
2023/11/19 05:09:40;;;;;;;0.67;0.30;;;;;;;9.53;100.00;153806.38;5038519;28;20801;-76
2023/11/19 05:12:09;;;;;;;1.00;0.50;;;;;;;9.52;100.00;153805.06;5049751;28;20462;-76
2023/11/19 05:14:36;;;;;;;0.70;0.30;;;;;;;9.53;100.00;153807.63;5051854;28;20516;-76
2023/11/19 05:17:03;;;;;;;1.57;0.40;;;;;;;9.57;100.00;153818.00;5032462;28;20466;-76
2023/11/19 05:19:29;;;;;;;1.07;0.53;;;;;;;9.55;100.00;153812.84;5041121;28;20466;-76
2023/11/19 05:21:57;;;;;;;1.00;0.40;;;;;;;9.57;100.00;153818.00;5023056;28;20525;-76
2023/11/19 05:24:24;;;;;;;0.77;0.30;;;;;;;9.57;100.00;153818.00;5057421;28;20525;-76
2023/11/19 05:26:51;;;;;;;0.83;0.40;;;;;;;9.60;100.00;153825.78;5043707;28;20452;-76
2023/11/19 05:29:17;;;;;;;0.80;0.47;;;;;;;9.56;100.00;153815.41;5039000;28;20545;-76
2023/11/19 05:31:44;;;;;;;1.37;0.40;;;;;;;9.63;100.00;153833.53;5036715;28;20459;-77
2023/11/19 05:34:10;;;;;;;0.90;0.50;;;;;;;9.63;100.00;153833.53;5031782;28;20443;-76
2023/11/19 05:36:39;;;;;;;0.80;0.43;;;;;;;9.62;100.00;153829.63;5022411;28;20569;-77
2023/11/19 05:39:07;;;;;;;0.90;0.30;;;;;;;9.65;100.00;153838.72;5026875;28;20439;-76
2023/11/19 05:41:33;;;;;;;0.70;0.40;;;;;;;9.67;100.00;153842.56;5053502;28;20454;-76
2023/11/19 05:44:00;;;;;;;3.07;0.40;;;;;;;9.62;100.00;153830.94;5046082;28;21012;-76
2023/11/19 05:46:27;;;;;;;0.77;0.33;;;;;;;9.64;100.00;153834.81;5040624;28;20481;-76
2023/11/19 05:48:53;;;;;;;0.80;0.47;;;;;;;9.63;100.00;153833.53;5040050;28;20436;-76
2023/11/19 05:51:20;;;;;;;0.87;0.50;;;;;;;9.61;100.00;153828.34;5032168;28;20537;-76
2023/11/19 05:53:46;;;;;;;0.80;0.50;;;;;;;9.65;100.00;153838.72;5023591;28;20499;-76
2023/11/19 05:56:15;;;;;;;0.80;0.33;;;;;;;9.67;100.00;153842.56;5026431;28;20466;-76
2023/11/19 05:58:44;;;;;;;0.87;0.50;;;;;;;9.65;100.00;153838.72;5050346;28;20540;-76
2023/11/19 06:01:11;;;;;;;0.77;0.40;;;;;;;9.65;100.00;153837.41;5048895;28;20503;-76
2023/11/19 06:03:38;;;;;;;0.90;0.50;;;;;;;9.66;100.00;153841.25;5048410;28;20516;-76
2023/11/19 06:06:05;;;;;;;1.20;0.50;;;;;;;9.69;100.00;153849.03;5046213;28;20490;-76
2023/11/19 06:08:31;;;;;;;0.80;0.30;;;;;;;9.70;100.00;153850.34;5037541;28;21017;-76
2023/11/19 06:10:58;;;;;;;0.90;0.40;;;;;;;9.72;100.00;153856.81;5037384;28;20485;-76
2023/11/19 06:13:26;;;;;;;1.00;0.40;;;;;;;9.77;100.00;153869.75;5038826;28;20448;-77
2023/11/19 06:15:52;;;;;;;1.10;0.40;;;;;;;9.77;100.00;153869.75;5037794;28;20455;-77
2023/11/19 06:18:19;;;;;;;1.80;0.40;;;;;;;9.76;100.00;153867.19;5037682;28;20479;-76
2023/11/19 06:20:46;;;;;;;0.80;0.40;;;;;;;9.77;100.00;153869.75;5027284;28;20463;-75
2023/11/19 06:23:13;;;;;;;0.80;0.40;;;;;;;9.73;100.00;153858.09;5039492;28;20454;-77
2023/11/19 06:25:39;;;;;;;0.83;0.50;;;;;;;9.75;100.00;153864.56;5037333;28;20470;-75
2023/11/19 06:28:06;;;;;;;0.90;0.50;;;;;;;9.82;100.00;153882.69;5035196;28;20977;-75
2023/11/19 06:30:34;;;;;;;1.00;0.40;;;;;;;9.84;100.00;153886.59;5023723;28;20459;-76
2023/11/19 06:33:00;;;;;;;1.00;0.50;;;;;;;9.86;100.00;153890.44;5019478;28;20450;-75
2023/11/19 06:35:28;;;;;;;1.07;0.50;;;;;;;9.87;100.00;153893.06;5026331;28;20455;-77
2023/11/19 06:38:39;;;;;;;1.00;0.40;;;;;;;9.86;100.00;153891.75;5034553;28;20470;-75
2023/11/19 06:41:08;;;;;;;0.90;0.47;;;;;;;9.86;100.00;153891.75;5006304;28;20835;-76
2023/11/19 06:43:35;;;;;;;0.80;0.40;;;;;;;9.87;100.00;153894.34;5019977;28;20450;-75
2023/11/19 06:46:05;;;;;;;0.80;0.40;;;;;;;9.89;100.00;153898.22;5001961;28;20463;-76
2023/11/19 06:48:32;;;;;;;0.90;0.40;;;;;;;9.92;100.00;153906.00;5032519;28;20464;-76
2023/11/19 06:50:58;;;;;;;1.03;0.40;;;;;;;9.90;100.00;153900.81;5036706;28;20449;-76
2023/11/19 06:53:25;;;;;;;1.97;0.53;;;;;;;9.93;100.00;153908.59;5036632;28;20455;-76
2023/11/19 06:55:52;;;;;;;0.80;0.33;;;;;;;9.93;100.00;153908.59;5018071;28;21002;-76
2023/11/19 06:58:39;;;;;;;0.90;0.47;;;;;;;9.92;100.00;153907.28;5018211;28;20479;-76
2023/11/19 07:01:09;;;;;;;0.90;0.40;;;;;;;9.91;100.00;153903.38;5031272;28;20458;-76
2023/11/19 07:03:35;;;;;;;1.57;0.53;;;;;;;9.92;100.00;153906.00;5034342;28;20593;-76
2023/11/19 07:06:05;;;;;;;1.00;0.50;;;;;;;9.90;100.00;153902.06;5021082;28;20863;-76
2023/11/19 07:08:31;;;;;;;0.70;0.30;;;;;;;9.91;100.00;153903.38;5039245;28;20477;-76
2023/11/19 07:10:58;;;;;;;0.80;0.40;;;;;;;9.90;100.00;153902.06;5035325;28;20534;-76
2023/11/19 07:13:27;;;;;;;0.90;0.50;;;;;;;9.88;100.00;153895.59;5037813;28;20454;-76
2023/11/19 07:15:54;;;;;;;1.40;0.50;;;;;;;9.90;100.00;153900.81;5018209;28;20442;-77
2023/11/19 07:18:22;;;;;;;1.03;0.50;;;;;;;9.90;100.00;153902.06;5033917;28;20940;-76
2023/11/19 07:20:49;;;;;;;0.90;0.50;;;;;;;9.95;100.00;153913.75;5034169;28;20575;-76
2023/11/19 07:23:16;;;;;;;1.00;0.50;;;;;;;9.97;100.00;153918.91;5038610;28;20455;-77
2023/11/19 07:25:44;;;;;;;0.87;0.40;;;;;;;9.96;100.00;153916.31;5036445;28;20822;-77
2023/11/19 07:28:11;;;;;;;1.03;0.53;;;;;;;9.96;100.00;153917.63;5034715;28;20466;-77
2023/11/19 07:30:38;;;;;;;0.83;0.50;;;;;;;9.99;100.00;153924.09;5034173;28;20462;-76
2023/11/19 07:33:05;;;;;;;0.97;0.60;;;;;;;10.02;100.00;153933.16;5033289;28;20467;-77
2023/11/19 07:35:33;;;;;;;1.30;0.70;;;;;;;10.04;100.00;153938.34;5030701;28;20977;-76
2023/11/19 07:38:00;;;;;;;1.70;0.67;;;;;;;10.07;100.00;153944.81;5030932;28;20502;-76
2023/11/19 07:40:26;;;;;;;0.90;0.60;;;;;;;10.06;100.00;153942.25;5037116;28;20465;-76
2023/11/19 07:42:53;;;;;;;1.10;0.80;;;;;;;10.08;100.00;153947.41;5037118;28;20943;-77
2023/11/19 07:45:20;;;;;;;1.23;0.70;;;;;;;10.07;100.00;153946.09;5034072;28;20455;-76
2023/11/19 07:47:46;;;;;;;1.20;0.70;;;;;;;10.10;100.00;153952.56;5037863;28;20451;-76
2023/11/19 07:50:14;;;;;;;1.00;0.60;;;;;;;10.13;100.00;153961.69;5037333;28;20514;-77
2023/11/19 07:52:42;;;;;;;0.93;0.57;;;;;;;10.13;100.00;153960.41;5001702;28;24911;-76
2023/11/19 07:55:41;;;;;;;1.33;0.60;;;;;;;10.13;100.00;153960.41;5037008;28;20459;-77
2023/11/19 08:01:17;;;;;;;1.23;0.90;;;;;;;10.10;100.00;153953.88;5033421;28;20471;-77
2023/11/19 08:03:44;;;;;;;1.27;0.60;;;;;;;10.11;100.00;153956.44;5039519;28;20455;-77
2023/11/19 08:06:11;;;;;;;2.13;0.83;;;;;;;10.12;100.00;153957.72;5023354;28;20473;-78
2023/11/19 08:08:42;;;;;;;1.20;0.50;;;;;;;10.12;100.00;153957.72;5018521;28;20458;-76
2023/11/19 08:11:09;;;;;;;1.00;0.53;;;;;;;10.13;100.00;153961.69;5041106;28;20455;-75
2023/11/19 08:13:35;;;;;;;1.60;0.50;;;;;;;10.15;100.00;153965.56;5038663;28;20841;-75
2023/11/19 08:16:01;;;;;;;0.93;0.50;;;;;;;10.21;100.00;153982.41;5017861;28;20452;-76
2023/11/19 08:18:28;;;;;;;1.03;0.47;;;;;;;10.26;100.00;153995.34;5019785;28;20218;-76
2023/11/19 08:20:56;;;;;;;1.10;0.50;;;;;;;10.27;100.00;153996.66;5015772;28;20486;-76
2023/11/19 08:23:25;;;;;;;1.27;0.73;;;;;;;10.27;100.00;153997.91;5035899;28;20459;-75
2023/11/19 08:25:53;;;;;;;1.30;0.60;;;;;;;10.29;100.00;154001.81;5021213;28;20439;-76
2023/11/19 08:28:19;;;;;;;1.30;0.60;;;;;;;10.31;100.00;154008.28;5019320;28;20461;-76
2023/11/19 08:34:01;;;;;;;1.00;0.63;;;;;;;10.43;100.00;154036.78;4958702;28;20561;-76
2023/11/19 08:36:55;;;;;;;1.03;0.60;;;;;;;10.45;100.00;154043.25;4989296;28;20461;-76
2023/11/19 08:39:46;;;;;;;3.00;0.70;;;;;;;10.49;100.00;154053.59;4959155;23;21338;-86
2023/11/19 08:42:23;;;;;;;0.90;0.40;;;;;;;10.57;100.00;154074.31;4977059;28;20546;-86
2023/11/19 08:44:59;;;;;;;0.90;0.50;;;;;;;10.65;100.00;154095.03;4987227;28;20500;-87
2023/11/19 08:47:40;;;;;;;1.27;0.80;;;;;;;10.72;100.00;154111.88;4979989;28;20812;-87
2023/11/19 08:50:15;;;;;;;0.80;0.50;;;;;;;10.72;100.00;154111.88;4972958;28;20579;-86
2023/11/19 08:52:51;;;;;;;0.97;0.60;;;;;;;10.77;100.00;154124.81;3447261;22;20686;31
2023/11/19 08:55:26;;;;;;;1.07;0.60;;;;;;;10.74;100.00;154118.34;5016866;28;20985;-88
2023/11/19 08:57:54;;;;;;;1.00;0.70;;;;;;;10.70;100.00;154107.97;5016838;28;20479;-88
2023/11/19 09:00:20;;;;;;;1.13;0.60;;;;;;;10.71;100.00;154110.56;5016340;28;20466;-87
2023/11/19 09:02:47;;;;;;;1.37;0.70;;;;;;;10.73;100.00;154115.75;5012949;28;20531;-87
2023/11/19 09:05:13;;;;;;;1.20;0.80;;;;;;;10.77;100.00;154124.81;5013106;28;20462;-76
2023/11/19 09:07:40;;;;;;;1.10;0.80;;;;;;;10.85;100.00;154146.84;5017103;28;20451;-76
2023/11/19 09:10:08;;;;;;;1.00;0.50;;;;;;;10.88;100.00;154154.56;5015593;28;20474;-76
2023/11/19 09:12:35;;;;;;;1.50;0.90;;;;;;;10.96;100.00;154175.31;5015028;28;20517;-76
2023/11/19 09:15:03;;;;;;;2.73;1.40;;;;;;;11.07;100.00;154202.50;5015002;28;20455;-76
2023/11/19 09:17:30;;;;;;;1.70;0.90;;;;;;;11.09;100.00;154207.72;5001492;28;20450;-76
2023/11/19 09:19:56;;;;;;;1.97;1.30;;;;;;;11.11;100.00;154212.88;5014509;28;20452;-76
2023/11/19 09:22:23;;;;;;;3.50;2.17;;;;;;;11.14;100.00;154220.66;5017824;28;20452;-76
2023/11/19 09:24:50;;;;;;;2.40;1.67;;;;;;;11.16;100.00;154224.53;5010151;28;20456;-76
2023/11/19 09:27:16;;;;;;;1.60;1.10;;;;;;;11.19;100.00;154232.31;5007809;28;20460;-76
2023/11/19 09:29:43;;;;;;;1.20;0.67;;;;;;;11.16;100.00;154225.84;5016856;28;20466;-76
2023/11/19 09:32:11;;;;;;;1.00;0.70;;;;;;;11.18;100.00;154229.72;5017077;28;20543;-77
2023/11/19 09:34:37;;;;;;;1.00;0.63;;;;;;;11.20;100.00;154234.94;5014521;28;21021;-76
2023/11/19 09:37:04;;;;;;;2.37;1.47;;;;;;;11.21;100.00;154237.47;5013023;28;20464;-76
2023/11/19 09:39:31;;;;;;;3.50;2.07;;;;;;;11.28;100.00;154255.66;5014901;28;20568;-76
2023/11/19 09:41:57;;;;;;;1.50;1.20;;;;;;;11.25;100.00;154249.13;5012541;28;20926;-77
2023/11/19 09:44:25;;;;;;;3.57;1.97;;;;;;;11.31;100.00;154264.69;5012293;28;20464;-76
2023/11/19 09:46:51;;;;;;;2.30;1.43;;;;;;;11.36;100.00;154276.34;5014725;28;20470;-76
2023/11/19 09:49:22;;;;;;;3.70;2.20;;;;;;;11.41;100.00;154289.34;5013221;28;20460;-76
2023/11/19 09:51:49;;;;;;;2.80;2.50;;;;;;;11.46;100.00;154302.28;5011873;28;20506;-76
2023/11/19 09:54:16;;;;;;;2.80;2.07;;;;;;;11.57;100.00;154330.75;5012826;28;20481;-76
2023/11/19 09:56:42;;;;;;;2.70;1.80;;;;;;;11.60;100.00;154339.84;5012659;28;20457;-76
2023/11/19 09:59:10;;;;;;;3.30;1.40;;;;;;;11.67;100.00;154356.72;5010685;28;20487;-77
2023/11/19 10:01:36;;;;;;;1.90;1.40;;;;;;;11.71;100.00;154365.81;5013397;28;20457;-76
2023/11/19 10:04:03;;;;;;;1.80;1.30;;;;;;;11.79;100.00;154387.84;5000642;28;20564;-76
2023/11/19 10:06:31;;;;;;;3.07;2.20;;;;;;;11.82;100.00;154395.63;5013404;28;20460;-76
2023/11/19 10:09:00;;;;;;;2.53;2.20;;;;;;;11.84;100.00;154399.50;5014345;28;20499;-76
2023/11/19 10:11:27;;;;;;;2.10;1.60;;;;;;;11.84;100.00;154400.78;4982872;28;21034;-76
2023/11/19 10:13:54;;;;;;;2.33;1.50;;;;;;;11.85;100.00;154403.41;5015191;28;20819;-76
2023/11/19 10:16:21;;;;;;;1.70;1.60;;;;;;;11.88;100.00;154411.19;5012870;28;20966;-76
2023/11/19 10:18:50;;;;;;;3.07;1.40;;;;;;;11.91;100.00;154418.97;5010314;28;20530;-76
2023/11/19 10:21:18;;;;;;;2.53;1.30;;;;;;;11.99;100.00;154439.66;5012168;28;21053;-76
2023/11/19 10:23:51;;;;;;;3.10;2.13;;;;;;;12.04;100.00;154452.69;5013963;28;20986;-76
2023/11/19 10:26:18;;;;;;;3.10;2.53;;;;;;;12.05;100.00;154453.94;5017433;28;20460;-76
2023/11/19 10:28:46;;;;;;;3.57;2.10;;;;;;;12.10;100.00;154466.88;5015028;28;20447;-76
2023/11/19 10:31:13;;;;;;;1.70;0.97;;;;;;;12.13;100.00;154475.97;5014190;28;20870;-76
2023/11/19 10:33:40;;;;;;;3.30;1.93;;;;;;;12.14;100.00;154477.28;5017360;28;20463;-76
2023/11/19 10:36:07;;;;;;;5.37;2.90;;;;;;;12.15;100.00;154481.16;5016742;28;20463;-76
2023/11/19 10:38:34;;;;;;;4.07;1.97;;;;;;;12.12;100.00;154473.41;5016459;28;20827;-76
2023/11/19 10:41:02;;;;;;;3.30;1.80;;;;;;;12.12;100.00;154472.13;5015283;28;20463;-76
2023/11/19 10:43:29;;;;;;;3.57;0.80;;;;;;;12.12;100.00;154473.41;5018550;28;20451;-77
2023/11/19 10:46:09;;;;;;;1.30;0.70;;;;;;;12.19;100.00;154491.56;5017043;28;20506;-77
2023/11/19 10:48:36;;;;;;;2.63;0.77;;;;;;;12.23;100.00;154500.66;5016994;28;20440;-76
2023/11/19 10:51:07;;;;;;;1.33;0.90;;;;;;;12.21;100.00;154496.72;5014656;28;20461;-76
2023/11/19 10:53:36;;;;;;;5.73;2.23;;;;;;;12.22;100.00;154498.03;5014491;28;20498;-76
2023/11/19 10:56:08;;;;;;;2.97;1.03;;;;;;;12.29;100.00;154516.16;5014087;28;20819;-76
2023/11/19 10:58:37;;;;;;;3.47;1.13;;;;;;;12.37;100.00;154536.91;5016581;28;20490;-77
2023/11/19 11:01:09;;;;;;;1.13;0.63;;;;;;;12.47;100.00;154561.59;5015506;28;20464;-76
2023/11/19 11:03:40;;;;;;;3.00;0.60;;;;;;;12.51;100.00;154573.25;5013576;28;20936;-76
2023/11/19 11:06:07;;;;;;;1.13;0.63;;;;;;;12.54;100.00;154579.72;5015781;28;20969;-77
2023/11/19 11:08:37;;;;;;;3.57;0.90;;;;;;;12.59;100.00;154594.00;5015602;28;20462;-76
2023/11/19 11:11:06;;;;;;;1.37;0.70;;;;;;;12.64;100.00;154605.66;5016542;28;20474;-76
2023/11/19 11:13:34;;;;;;;1.83;1.00;;;;;;;12.69;100.00;154618.63;5013430;28;20444;-76
2023/11/19 11:16:01;;;;;;;0.97;0.40;;;;;;;12.69;100.00;154619.91;5018627;28;20448;-77
2023/11/19 11:18:27;;;;;;;1.00;0.60;;;;;;;12.69;100.00;154618.63;5015721;28;20486;-76
2023/11/19 11:20:58;;;;;;;3.30;1.20;;;;;;;12.67;100.00;154614.75;5014949;28;20955;-76
2023/11/19 11:23:39;;;;;;;2.90;0.80;;;;;;;12.63;100.00;154604.34;5016278;28;20799;-76
2023/11/19 11:26:23;;;;;;;2.30;0.80;;;;;;;12.61;100.00;154597.84;5015151;28;20615;-74
2023/11/19 11:28:56;;;;;;;1.00;0.47;;;;;;;12.61;100.00;154599.16;5016106;28;20444;-74
2023/11/19 11:31:31;;;;;;;1.23;0.77;;;;;;;12.64;100.00;154605.66;5015516;28;20615;-77
2023/11/19 11:34:13;;;;;;;1.57;0.70;;;;;;;12.66;100.00;154610.81;4981505;28;20458;-77